Aviosuperficie Acqui Terme

IT-0038 · 皮埃蒙特, 意大利

使用的METAR站距离机场40 km。
罗盘
风向 的 风向 的 风向 到 风向 360° Aviosuperficie Acqui Terme 15/33
风: 3 kt, 1 beaufort

2 kt

2 kt
改变
0 ft 1.000 2.000 3.000 4.000 5.000
CAVOK
METAR LIMJ 252250Z 36003KT 340V040 CAVOK 17/12 Q1017

METAR Aviosuperficie Acqui Terme - IT-0038

Aviosuperficie Acqui Terme是,意大利中的小机场。 该机场位于纬度44,67612和经度8,50264。 该机场有一条跑道: 15/33. 这个机场没有ICAO代码,我们使用IT-0038作为参考。 机场在Milano FIR中。

该航空气象观测是针对Genoa Cristoforo Colombo Airport在2024年5月26日 00:50, 当地时间进行的。

机场观察

风向为360°,速度为3 kt。 风向在340°和040°之间变化。

天气为CAVOK。这意味着在5.000 ft或MSA(最低安全高度)以下(以较高者为准)以下没有云。这也意味着没有观测到积雨云或高耸的积云,可见度为10 km 或者更多或更高。此外,不会有雾,降雨或其他重要天气。

温度和风寒是17 °C。 露点为12 °C,相对湿度为73%。 海平面上的气压为1017 hPa (QNH)。

白天

今天,太阳从05:47升起,在20:58降落。 这适用于Aviosuperficie Acqui Terme,世界夏令时可能有所不同。 当地时间与世界标准时间之间的时差为+2 小时。 夏令时目前正在进行中。

公司介绍

在这个机场,你可以找到跳伞中心。 本场上唯一已知的公司是Acqui Terme。

体会

到Vliegles.nl去找飞行课程,跳伞和其他飞行体验。 浏览页面,了解Aviosuperficie Acqui Terme附近所有可用的活动。 你也可以使用搜索功能来寻找你所在地附近的特定飞行课程、跳伞或其他飞行体验。

跑道

Id 标题 侧风 逆风 侧风 %
15/33 144°-324° 2 kt 2 kt 59 %

逆风成分最大的方向会被突出显示,并用于横风计算。 这并不一定意味着这个方向在使用。

温度 & 天气

温度 17 °C
露点 12 °C
相对湿度 73%
Kp-index 1 (0-9)

白天

日出
05:47 (4:42)
中午
13:21
日落
20:55

小工具

你想在你的网站上有一个关于Aviosuperficie Acqui Terme的当前航空天气(METAR)的小部件吗?

显示HTML代码
报告变更